createdAt,value
2018-12-02T00:00:41.747Z,18.7
2018-12-02T00:01:43.642Z,18.7
2018-12-02T00:02:45.539Z,18.8
2018-12-02T00:03:47.436Z,18.8
2018-12-02T00:04:48.787Z,18.8
2018-12-02T00:05:50.125Z,18.7
2018-12-02T00:06:51.723Z,18.7
2018-12-02T00:07:53.345Z,18.7
2018-12-02T00:08:55.242Z,18.8
2018-12-02T00:09:56.571Z,18.8
2018-12-02T00:10:58.462Z,18.8
2018-12-02T00:12:00.110Z,18.8
2018-12-02T00:13:02.044Z,18.8
2018-12-02T00:14:03.662Z,18.8
2018-12-02T00:15:04.983Z,18.8
2018-12-02T00:16:06.603Z,18.7
2018-12-02T00:17:08.496Z,18.7
2018-12-02T00:18:10.392Z,18.7
2018-12-02T00:19:12.302Z,18.7
2018-12-02T00:20:14.197Z,18.7
2018-12-02T00:21:16.092Z,18.8
2018-12-02T00:22:17.161Z,18.7
2018-12-02T00:23:19.058Z,18.8
2018-12-02T00:24:20.402Z,18.8
2018-12-02T00:25:21.749Z,18.8
2018-12-02T00:26:23.096Z,18.7
2018-12-02T00:27:24.994Z,18.8
2018-12-02T00:28:26.316Z,18.7
2018-12-02T00:29:27.941Z,18.8
2018-12-02T00:30:29.543Z,18.8
2018-12-02T00:31:31.164Z,18.8
2018-12-02T00:32:32.783Z,18.7
2018-12-02T00:33:34.110Z,18.7
2018-12-02T00:34:36.005Z,18.8
2018-12-02T00:35:37.901Z,18.8
2018-12-02T00:36:39.520Z,18.8
2018-12-02T00:37:40.565Z,18.8
2018-12-02T00:38:42.167Z,18.7
2018-12-02T00:39:43.769Z,18.7
2018-12-02T00:40:45.664Z,18.7
2018-12-02T00:41:47.030Z,18.7
2018-12-02T00:42:48.647Z,18.7
2018-12-02T00:43:49.997Z,18.8
2018-12-02T00:44:51.895Z,18.7
2018-12-02T00:45:53.496Z,18.7
2018-12-02T00:46:54.541Z,18.7
2018-12-02T00:47:56.167Z,18.7
2018-12-02T00:48:58.061Z,18.7
2018-12-02T00:49:59.969Z,18.7
2018-12-02T00:51:01.293Z,18.7
2018-12-02T00:52:02.622Z,18.7
2018-12-02T00:53:04.516Z,18.7
2018-12-02T00:54:06.433Z,18.7
2018-12-02T00:55:08.054Z,18.7
2018-12-02T00:56:09.107Z,18.7
2018-12-02T00:57:10.727Z,18.7
2018-12-02T00:58:12.055Z,18.8
2018-12-02T00:59:13.399Z,18.7
2018-12-02T01:00:15.028Z,18.7
2018-12-02T01:03:16.581Z,18.8
2018-12-02T01:04:18.195Z,18.8
2018-12-02T01:05:19.539Z,18.8
2018-12-02T01:06:20.584Z,18.8
2018-12-02T01:07:21.908Z,18.8
2018-12-02T01:08:23.804Z,18.8
2018-12-02T01:09:25.148Z,18.8
2018-12-02T01:10:26.748Z,18.8
2018-12-02T01:11:28.409Z,18.8
2018-12-02T01:12:29.722Z,18.7
2018-12-02T01:13:31.345Z,18.7
2018-12-02T01:14:33.242Z,18.8
2018-12-02T01:15:35.136Z,18.8
2018-12-02T01:16:36.477Z,18.8
2018-12-02T01:17:37.807Z,18.8
2018-12-02T01:18:39.129Z,18.9
2018-12-02T01:19:40.473Z,18.8
2018-12-02T01:20:42.370Z,18.8
2018-12-02T01:21:43.993Z,18.8
2018-12-02T01:22:45.333Z,18.8
2018-12-02T01:23:46.951Z,18.8
2018-12-02T01:24:48.624Z,18.9
2018-12-02T01:25:49.673Z,18.8
2018-12-02T01:26:51.289Z,18.8
2018-12-02T01:27:53.186Z,18.9
2018-12-02T01:28:55.091Z,18.8
2018-12-02T01:29:56.691Z,18.8
2018-12-02T01:30:57.738Z,18.8
2018-12-02T01:31:59.634Z,18.8
2018-12-02T01:33:00.988Z,18.8
2018-12-02T01:34:02.607Z,18.9
2018-12-02T01:35:04.508Z,18.8
2018-12-02T01:36:06.401Z,18.9
2018-12-02T01:37:08.001Z,18.8
2018-12-02T01:38:09.641Z,18.8
2018-12-02T01:39:11.270Z,18.9
2018-12-02T01:40:13.162Z,18.8
2018-12-02T01:41:14.786Z,18.8
2018-12-02T01:42:16.404Z,18.8
2018-12-02T01:43:17.735Z,18.8
2018-12-02T01:44:19.397Z,18.9
2018-12-02T01:45:20.719Z,18.8
2018-12-02T01:46:22.342Z,18.8
2018-12-02T01:47:24.237Z,18.8
2018-12-02T01:48:26.134Z,18.8
2018-12-02T01:49:27.463Z,18.8
2018-12-02T01:50:29.360Z,18.8
2018-12-02T01:51:30.687Z,18.8
2018-12-02T01:52:32.012Z,18.8
2018-12-02T01:53:33.381Z,18.8
2018-12-02T01:54:34.971Z,18.9
2018-12-02T01:55:36.867Z,18.8
2018-12-02T01:56:38.487Z,18.8
2018-12-02T01:57:40.383Z,18.7
2018-12-02T01:58:42.005Z,18.8
2018-12-02T01:59:43.606Z,18.8
2018-12-02T02:00:45.231Z,18.8
2018-12-02T02:01:46.832Z,18.8
2018-12-02T02:02:48.154Z,18.8
2018-12-02T02:03:50.051Z,18.9
2018-12-02T02:04:51.672Z,18.8
2018-12-02T02:05:53.303Z,18.8
2018-12-02T02:06:54.905Z,18.8
2018-12-02T02:07:56.510Z,18.8
2018-12-02T02:08:58.404Z,18.7
2018-12-02T02:09:59.737Z,18.8
2018-12-02T02:11:01.355Z,18.8
2018-12-02T02:12:02.704Z,18.8
2018-12-02T02:13:04.329Z,18.8
2018-12-02T02:14:05.933Z,18.8
2018-12-02T02:15:06.981Z,18.8
2018-12-02T02:16:08.879Z,18.7
2018-12-02T02:17:10.229Z,18.8
2018-12-02T02:18:11.864Z,18.8
2018-12-02T02:19:13.483Z,18.8
2018-12-02T02:20:15.103Z,18.8
2018-12-02T02:21:16.706Z,18.8
2018-12-02T02:22:18.603Z,18.8
2018-12-02T02:23:20.501Z,18.8
2018-12-02T02:24:21.553Z,18.8
2018-12-02T02:25:23.175Z,18.8
2018-12-02T02:26:24.773Z,18.7
2018-12-02T02:27:26.396Z,18.8
2018-12-02T02:28:28.017Z,18.7
2018-12-02T02:29:29.639Z,18.8
2018-12-02T02:30:31.535Z,18.7
2018-12-02T02:31:33.437Z,18.6
2018-12-02T02:32:35.038Z,18.7
2018-12-02T02:33:36.636Z,18.7
2018-12-02T02:34:38.533Z,18.7
2018-12-02T02:35:39.608Z,18.8
2018-12-02T02:36:41.504Z,18.8
2018-12-02T02:37:42.555Z,18.8
2018-12-02T02:38:44.161Z,18.8
2018-12-02T02:39:45.506Z,18.8
2018-12-02T02:40:47.143Z,18.8
2018-12-02T02:41:49.043Z,18.9
2018-12-02T02:42:50.396Z,18.8
2018-12-02T02:43:51.744Z,18.8
2018-12-02T02:44:53.095Z,18.8
2018-12-02T02:45:54.991Z,18.8
2018-12-02T02:46:56.889Z,18.9
2018-12-02T02:47:58.787Z,18.9
2018-12-02T02:49:00.408Z,18.8
2018-12-02T02:50:02.027Z,18.9
2018-12-02T02:51:03.353Z,18.8
2018-12-02T02:52:05.250Z,18.8
2018-12-02T02:53:06.878Z,18.9
2018-12-02T02:54:08.779Z,18.8
2018-12-02T02:55:09.839Z,18.8
2018-12-02T02:56:11.165Z,18.9
2018-12-02T02:57:13.065Z,18.8
2018-12-02T02:58:14.392Z,18.9
2018-12-02T02:59:16.290Z,18.9
2018-12-02T03:00:17.987Z,18.9
2018-12-02T03:01:19.922Z,18.9
2018-12-02T03:02:21.847Z,18.8
2018-12-02T03:03:23.472Z,18.8
2018-12-02T03:04:25.408Z,18.8
2018-12-02T03:05:27.307Z,18.8
2018-12-02T03:06:29.200Z,18.9
2018-12-02T03:07:31.095Z,18.8
2018-12-02T03:08:32.993Z,18.8
2018-12-02T03:09:34.889Z,18.7
2018-12-02T03:10:36.238Z,18.8
2018-12-02T03:11:37.855Z,18.8
2018-12-02T03:12:39.801Z,18.8
2018-12-02T03:13:41.696Z,18.8
2018-12-02T03:14:43.594Z,18.9
2018-12-02T03:15:45.205Z,18.8
2018-12-02T03:16:46.823Z,18.8
2018-12-02T03:17:48.445Z,18.8
2018-12-02T03:18:50.355Z,18.8
2018-12-02T03:19:51.682Z,18.8
2018-12-02T03:20:53.581Z,18.8
2018-12-02T03:21:54.927Z,18.8
2018-12-02T03:22:56.549Z,18.8
2018-12-02T03:23:58.171Z,18.8
2018-12-02T03:24:59.501Z,18.9
2018-12-02T03:26:01.102Z,18.9
2018-12-02T03:27:02.727Z,18.8
2018-12-02T03:28:04.626Z,18.8
2018-12-02T03:29:06.226Z,18.8
2018-12-02T03:30:07.551Z,18.8
2018-12-02T03:31:09.154Z,18.8
2018-12-02T03:32:10.775Z,18.8
2018-12-02T03:33:12.394Z,18.7
2018-12-02T03:34:13.760Z,18.8
2018-12-02T03:35:15.657Z,18.8
2018-12-02T03:36:17.282Z,18.9
2018-12-02T03:37:19.187Z,18.8
2018-12-02T03:38:20.556Z,18.8
2018-12-02T03:39:22.450Z,18.8
2018-12-02T03:40:23.793Z,18.8
2018-12-02T03:41:25.419Z,18.8
2018-12-02T03:42:26.764Z,18.7
2018-12-02T03:43:28.388Z,18.8
2018-12-02T03:44:29.714Z,18.8
2018-12-02T03:45:31.609Z,18.8
2018-12-02T03:46:33.506Z,18.8
2018-12-02T03:47:35.144Z,18.8
2018-12-02T03:48:37.044Z,18.8
2018-12-02T03:49:38.665Z,18.9
2018-12-02T03:50:40.287Z,18.8
2018-12-02T03:51:41.910Z,18.8
2018-12-02T03:52:43.274Z,18.8
2018-12-02T03:53:44.898Z,18.8
2018-12-02T03:54:46.501Z,18.8
2018-12-02T03:55:48.404Z,18.8
2018-12-02T03:56:50.017Z,18.8
2018-12-02T03:57:51.641Z,18.8
2018-12-02T03:58:52.966Z,18.8
2018-12-02T03:59:54.314Z,18.8
2018-12-02T04:00:55.639Z,18.8
2018-12-02T04:01:57.266Z,18.8
2018-12-02T04:02:59.159Z,18.8
2018-12-02T04:04:00.784Z,18.8
2018-12-02T04:05:01.858Z,18.9
2018-12-02T04:06:03.490Z,18.8
2018-12-02T04:07:05.378Z,18.8
2018-12-02T04:08:07.275Z,18.8
2018-12-02T04:09:09.173Z,18.8
2018-12-02T04:10:11.074Z,18.9
2018-12-02T04:11:12.417Z,18.7
2018-12-02T04:12:14.330Z,18.8
2018-12-02T04:13:16.218Z,18.8
2018-12-02T04:14:18.116Z,18.8
2018-12-02T04:15:19.722Z,18.8
2018-12-02T04:16:21.344Z,18.8
2018-12-02T04:17:22.393Z,18.8
2018-12-02T04:18:24.026Z,18.8
2018-12-02T04:19:25.627Z,18.8
2018-12-02T04:20:27.529Z,18.8
2018-12-02T04:21:29.148Z,18.8
2018-12-02T04:22:30.749Z,18.8
2018-12-02T04:23:32.069Z,18.8
2018-12-02T04:24:33.691Z,18.8
2018-12-02T04:25:35.036Z,18.8
2018-12-02T04:26:36.936Z,18.8
2018-12-02T04:27:38.830Z,18.8
2018-12-02T04:28:40.156Z,18.8
2018-12-02T04:29:42.071Z,18.8
2018-12-02T04:30:43.686Z,18.8
2018-12-02T04:31:45.012Z,18.8
2018-12-02T04:32:46.676Z,18.8
2018-12-02T04:33:48.039Z,18.8
2018-12-02T04:34:49.368Z,18.8
2018-12-02T04:35:51.266Z,18.8
2018-12-02T04:36:52.896Z,18.8
2018-12-02T04:37:54.524Z,18.8
2018-12-02T04:38:56.462Z,18.8
2018-12-02T04:39:57.788Z,18.8
2018-12-02T04:40:59.411Z,18.8
2018-12-02T04:42:01.310Z,18.8
2018-12-02T04:43:02.932Z,18.8
2018-12-02T04:44:04.264Z,18.8
2018-12-02T04:45:06.160Z,18.9
2018-12-02T04:46:08.058Z,18.8
2018-12-02T04:47:09.956Z,18.8
2018-12-02T04:48:11.293Z,18.9
2018-12-02T04:49:12.625Z,18.8
2018-12-02T04:50:14.263Z,18.8
2018-12-02T04:51:16.211Z,18.8
2018-12-02T04:52:18.177Z,18.7
2018-12-02T04:53:19.507Z,18.8
2018-12-02T04:54:21.419Z,18.8
2018-12-02T04:55:23.317Z,18.8
2018-12-02T04:56:25.014Z,18.8
2018-12-02T04:57:26.912Z,18.8
2018-12-02T04:58:28.533Z,18.8
2018-12-02T04:59:30.160Z,18.8
2018-12-02T05:00:32.052Z,18.9
2018-12-02T05:01:33.710Z,18.8
2018-12-02T05:02:35.332Z,18.8
2018-12-02T05:03:36.955Z,18.8
2018-12-02T05:04:38.853Z,18.8
2018-12-02T05:05:40.528Z,18.7
2018-12-02T05:06:42.135Z,18.8
2018-12-02T05:07:44.031Z,18.8
2018-12-02T05:08:45.942Z,18.8
2018-12-02T05:09:47.551Z,18.8
2018-12-02T05:10:49.445Z,18.8
2018-12-02T05:11:51.341Z,18.8
2018-12-02T05:12:52.966Z,18.8
2018-12-02T05:13:54.567Z,18.8
2018-12-02T05:14:55.640Z,18.8
2018-12-02T05:15:56.968Z,18.8
2018-12-02T05:16:58.297Z,18.8
2018-12-02T05:18:00.197Z,18.7
2018-12-02T05:19:01.823Z,18.8
2018-12-02T05:20:03.424Z,18.8
2018-12-02T05:21:04.753Z,18.8
2018-12-02T05:22:06.651Z,18.8
2018-12-02T05:23:08.276Z,18.7
2018-12-02T05:24:09.598Z,18.8
2018-12-02T05:25:16.941Z,18.7
2018-12-02T05:26:19.863Z,18.8
2018-12-02T05:27:21.484Z,18.8
2018-12-02T05:28:22.850Z,18.8
2018-12-02T05:29:24.784Z,18.8
2018-12-02T05:30:26.115Z,18.7
2018-12-02T05:31:27.738Z,18.8
2018-12-02T05:32:29.366Z,18.8
2018-12-02T05:33:30.411Z,18.8
2018-12-02T05:34:32.011Z,18.8
2018-12-02T05:35:33.909Z,18.8
2018-12-02T05:36:35.529Z,18.8
2018-12-02T05:37:37.134Z,18.8
2018-12-02T05:38:38.461Z,18.8
2018-12-02T05:39:40.085Z,18.8
2018-12-02T05:40:41.980Z,18.8
2018-12-02T05:41:43.600Z,18.8
2018-12-02T05:42:45.497Z,18.9
2018-12-02T05:43:47.394Z,18.8
2018-12-02T05:44:49.292Z,18.8
2018-12-02T05:45:51.187Z,18.8
2018-12-02T05:46:52.512Z,18.9
2018-12-02T05:47:53.844Z,18.8
2018-12-02T05:48:55.466Z,18.9
2018-12-02T05:49:57.087Z,18.9
2018-12-02T05:50:58.984Z,18.9
2018-12-02T05:52:00.041Z,18.8
2018-12-02T05:53:01.661Z,18.8
2018-12-02T05:54:02.987Z,18.8
2018-12-02T05:55:04.885Z,18.8
2018-12-02T05:56:06.780Z,18.8
2018-12-02T05:57:08.386Z,18.8
2018-12-02T05:58:09.716Z,18.8
2018-12-02T05:59:11.337Z,18.8
2018-12-02T06:00:13.241Z,18.8
2018-12-02T06:01:15.185Z,18.8
2018-12-02T06:02:17.666Z,18.8
2018-12-02T06:03:19.678Z,18.8
2018-12-02T06:04:20.741Z,18.8
2018-12-02T06:05:22.064Z,18.8
2018-12-02T06:06:23.971Z,18.8
2018-12-02T06:07:25.594Z,18.8
2018-12-02T06:08:27.495Z,18.8
2018-12-02T06:09:29.118Z,18.8
2018-12-02T06:10:30.740Z,18.9
2018-12-02T06:11:32.635Z,18.8
2018-12-02T06:12:34.569Z,18.9
2018-12-02T06:13:36.482Z,18.8
2018-12-02T06:14:38.108Z,18.8
2018-12-02T06:15:39.705Z,18.8
2018-12-02T06:16:41.329Z,18.8
2018-12-02T06:17:42.937Z,18.8
2018-12-02T06:18:44.591Z,18.8
2018-12-02T06:19:46.212Z,18.7
2018-12-02T06:20:47.537Z,18.8
2018-12-02T06:21:49.158Z,18.8
2018-12-02T06:22:51.053Z,18.8
2018-12-02T06:23:52.952Z,18.9
2018-12-02T06:24:54.279Z,18.8
2018-12-02T06:25:56.181Z,18.7
2018-12-02T06:26:57.506Z,18.8
2018-12-02T06:27:58.868Z,18.8
2018-12-02T06:29:00.765Z,18.8
2018-12-02T06:30:02.386Z,18.8
2018-12-02T06:31:04.008Z,18.8
2018-12-02T06:32:05.911Z,18.8
2018-12-02T06:33:07.236Z,18.8
2018-12-02T06:34:09.133Z,18.8
2018-12-02T06:35:10.758Z,18.8
2018-12-02T06:36:12.382Z,18.8
2018-12-02T06:37:13.730Z,18.8
2018-12-02T06:38:14.778Z,18.8
2018-12-02T06:39:16.383Z,18.8
2018-12-02T06:40:17.758Z,18.7
2018-12-02T06:41:19.355Z,18.8
2018-12-02T06:42:20.975Z,18.8
2018-12-02T06:43:22.602Z,18.8
2018-12-02T06:44:23.952Z,18.8
2018-12-02T06:45:24.734Z,18.8
2018-12-02T06:46:25.783Z,18.8
2018-12-02T06:47:27.407Z,18.8
2018-12-02T06:48:28.743Z,18.8
2018-12-02T06:49:30.640Z,18.8
2018-12-02T06:50:32.239Z,18.8
2018-12-02T06:51:33.840Z,18.8
2018-12-02T06:52:35.438Z,18.8
2018-12-02T06:53:37.336Z,18.8
2018-12-02T06:54:39.234Z,18.8
2018-12-02T06:55:40.858Z,18.8
2018-12-02T06:56:42.753Z,18.8
2018-12-02T06:57:44.132Z,18.8
2018-12-02T06:58:46.031Z,18.8
2018-12-02T06:59:47.935Z,18.8
2018-12-02T07:00:49.832Z,18.9
2018-12-02T07:01:51.767Z,18.9
2018-12-02T07:02:53.416Z,18.8
2018-12-02T07:03:54.745Z,18.8
2018-12-02T07:04:56.071Z,18.8
2018-12-02T07:05:57.969Z,18.9
2018-12-02T07:06:59.318Z,18.9
2018-12-02T07:08:00.679Z,18.8
2018-12-02T07:09:02.300Z,18.8
2018-12-02T07:10:04.198Z,18.8
2018-12-02T07:11:05.823Z,18.9
2018-12-02T07:12:07.722Z,18.9
2018-12-02T07:13:09.344Z,18.8
2018-12-02T07:14:10.942Z,18.8
2018-12-02T07:15:12.840Z,18.9
2018-12-02T07:16:14.166Z,18.8
2018-12-02T07:17:15.793Z,18.9
2018-12-02T07:18:17.117Z,18.8
2018-12-02T07:19:18.474Z,18.8
2018-12-02T07:20:20.374Z,18.8
2018-12-02T07:21:21.702Z,18.9
2018-12-02T07:22:23.305Z,18.8
2018-12-02T07:23:24.634Z,18.8
2018-12-02T07:24:26.532Z,18.9
2018-12-02T07:25:28.432Z,18.8
2018-12-02T07:26:29.781Z,18.9
2018-12-02T07:27:31.382Z,18.8
2018-12-02T07:28:33.284Z,18.9
2018-12-02T07:29:34.909Z,18.8
2018-12-02T07:30:36.806Z,18.9
2018-12-02T07:31:38.431Z,18.8
2018-12-02T07:32:39.753Z,18.8
2018-12-02T07:33:41.651Z,18.9
2018-12-02T07:34:43.275Z,18.8
2018-12-02T07:35:44.899Z,18.8
2018-12-02T07:36:46.248Z,18.8
2018-12-02T07:37:47.849Z,18.8
2018-12-02T07:38:49.470Z,18.8
2018-12-02T07:39:51.365Z,18.8
2018-12-02T07:40:52.972Z,18.9
2018-12-02T07:41:54.594Z,19
2018-12-02T07:42:55.945Z,19
2018-12-02T07:43:57.547Z,19
2018-12-02T07:44:59.449Z,19
2018-12-02T07:46:01.072Z,18.9
2018-12-02T07:47:02.694Z,18.8
2018-12-02T07:48:04.606Z,19
2018-12-02T07:49:06.503Z,18.9
2018-12-02T07:50:08.131Z,18.9
2018-12-02T07:51:10.027Z,19
2018-12-02T07:52:11.379Z,18.9
2018-12-02T07:53:13.000Z,19
2018-12-02T07:54:14.340Z,18.8
2018-12-02T07:55:16.241Z,18.8
2018-12-02T07:56:18.140Z,18.9
2018-12-02T07:57:19.763Z,19
2018-12-02T07:58:21.129Z,18.9
2018-12-02T07:59:22.750Z,18.9
2018-12-02T08:00:24.079Z,18.8
2018-12-02T08:01:25.979Z,18.8
2018-12-02T08:02:27.340Z,18.8
2018-12-02T08:03:28.119Z,18.9
2018-12-02T08:04:29.739Z,19
2018-12-02T08:05:31.363Z,19
2018-12-02T08:06:33.256Z,18.9
2018-12-02T08:07:34.878Z,19
2018-12-02T08:08:36.481Z,18.9
2018-12-02T08:09:38.376Z,18.9
2018-12-02T08:10:39.997Z,18.9
2018-12-02T08:11:41.620Z,18.9
2018-12-02T08:12:43.242Z,18.9
2018-12-02T08:13:45.138Z,18.9
2018-12-02T08:14:46.470Z,18.9
2018-12-02T08:15:48.093Z,18.9
2018-12-02T08:16:49.990Z,19
2018-12-02T08:17:51.889Z,18.9
2018-12-02T08:18:53.510Z,18.9
2018-12-02T08:19:54.857Z,18.9
2018-12-02T08:20:56.455Z,19
2018-12-02T08:21:58.078Z,19
2018-12-02T08:22:59.710Z,18.9
2018-12-02T08:24:01.338Z,18.9
2018-12-02T08:25:03.233Z,18.9
2018-12-02T08:26:04.855Z,19
2018-12-02T08:27:06.482Z,18.9
2018-12-02T08:28:08.087Z,19
2018-12-02T08:29:09.703Z,18.9
2018-12-02T08:30:11.326Z,18.9
2018-12-02T08:31:12.963Z,18.9
2018-12-02T08:32:14.587Z,19
2018-12-02T08:33:15.937Z,18.9
2018-12-02T08:34:17.268Z,18.9
2018-12-02T08:35:18.889Z,18.9
2018-12-02T08:36:20.527Z,18.9
2018-12-02T08:37:21.853Z,18.9
2018-12-02T08:38:23.476Z,19
2018-12-02T08:39:25.372Z,18.9
2018-12-02T08:40:27.267Z,18.9
2018-12-02T08:41:29.164Z,18.9
2018-12-02T08:42:30.787Z,19
2018-12-02T08:43:32.391Z,18.9
2018-12-02T08:44:34.289Z,18.9
2018-12-02T08:45:36.194Z,19.1
2018-12-02T08:46:38.853Z,19
2018-12-02T08:47:40.793Z,18.9
2018-12-02T08:48:42.415Z,19
2018-12-02T08:49:44.040Z,19
2018-12-02T08:50:45.934Z,18.9
2018-12-02T08:51:47.542Z,18.9
2018-12-02T08:52:49.153Z,19
2018-12-02T08:53:51.045Z,18.9
2018-12-02T08:54:52.665Z,18.9
2018-12-02T08:55:53.788Z,18.9
2018-12-02T08:56:55.411Z,18.9
2018-12-02T08:57:57.315Z,18.9
2018-12-02T08:58:58.665Z,19
2018-12-02T09:00:00.286Z,18.9
2018-12-02T09:01:01.936Z,19
2018-12-02T09:02:03.835Z,19
2018-12-02T09:03:05.438Z,18.9
2018-12-02T09:04:06.766Z,18.9
2018-12-02T09:05:08.664Z,18.9
2018-12-02T09:06:10.269Z,18.9
2018-12-02T09:07:12.172Z,18.9
2018-12-02T09:08:13.501Z,18.9
2018-12-02T09:09:14.825Z,19
2018-12-02T09:10:16.452Z,18.9
2018-12-02T09:11:17.232Z,18.9
2018-12-02T09:12:18.851Z,18.9
2018-12-02T09:13:20.477Z,18.9
2018-12-02T09:14:22.084Z,19
2018-12-02T09:15:23.726Z,18.9
2018-12-02T09:16:25.059Z,19
2018-12-02T09:17:26.681Z,19.1
2018-12-02T09:18:28.306Z,19
2018-12-02T09:19:30.202Z,19
2018-12-02T09:20:31.826Z,19
2018-12-02T09:21:33.153Z,18.9
2018-12-02T09:22:34.775Z,18.9
2018-12-02T09:23:36.100Z,18.9
2018-12-02T09:24:37.721Z,18.9
2018-12-02T09:25:39.617Z,18.9
2018-12-02T09:26:41.240Z,19
2018-12-02T09:27:43.145Z,18.9
2018-12-02T09:28:45.039Z,18.9
2018-12-02T09:29:46.387Z,18.9
2018-12-02T09:30:48.291Z,18.9
2018-12-02T09:31:49.910Z,18.9
2018-12-02T09:32:50.985Z,18.9
2018-12-02T09:33:52.885Z,19
2018-12-02T09:34:54.783Z,19.1
2018-12-02T09:35:56.678Z,19
2018-12-02T09:36:58.299Z,19
2018-12-02T09:37:59.360Z,18.9
2018-12-02T09:39:00.983Z,19
2018-12-02T09:40:02.892Z,19
2018-12-02T09:41:04.490Z,19.1
2018-12-02T09:42:05.845Z,19.1
2018-12-02T09:43:07.168Z,19.1
2018-12-02T09:44:08.794Z,19
2018-12-02T09:45:10.144Z,19.1
2018-12-02T09:46:12.044Z,19.1
2018-12-02T09:47:13.944Z,19.1
2018-12-02T09:48:15.544Z,19.1
2018-12-02T09:49:16.869Z,19.1
2018-12-02T09:50:18.218Z,19
2018-12-02T09:51:20.120Z,19
2018-12-02T09:52:21.745Z,19
2018-12-02T09:53:23.641Z,19.1
2018-12-02T09:54:25.540Z,19
2018-12-02T09:55:26.867Z,19
2018-12-02T09:56:28.768Z,19.1
2018-12-02T09:57:30.118Z,19.1
2018-12-02T09:58:31.467Z,19.1
2018-12-02T09:59:32.841Z,19.1
2018-12-02T10:00:34.580Z,19.1
2018-12-02T10:01:36.217Z,19.1
2018-12-02T10:02:37.270Z,19.1
2018-12-02T10:03:38.322Z,19.1
2018-12-02T10:04:40.224Z,19.1
2018-12-02T10:05:41.880Z,19.2
2018-12-02T10:06:43.775Z,19.1
2018-12-02T10:07:45.105Z,19.2
2018-12-02T10:08:47.000Z,19.1
2018-12-02T10:09:48.613Z,19.2
2018-12-02T10:10:50.510Z,19.1
2018-12-02T10:11:51.866Z,19.2
2018-12-02T10:12:52.929Z,19.2
2018-12-02T10:13:54.253Z,19.2
2018-12-02T10:14:56.151Z,19.2
2018-12-02T10:15:57.778Z,19.2
2018-12-02T10:16:59.104Z,19.2
2018-12-02T10:18:01.000Z,19.2
2018-12-02T10:19:02.623Z,19.2
2018-12-02T10:20:03.681Z,19.2
2018-12-02T10:21:05.301Z,19.3
2018-12-02T10:22:06.930Z,19.2
2018-12-02T10:23:08.553Z,19.3
2018-12-02T10:24:09.608Z,19.3
2018-12-02T10:25:11.230Z,19.2
2018-12-02T10:26:12.851Z,19.2
2018-12-02T10:27:14.475Z,19.3
2018-12-02T10:28:15.806Z,19.2
2018-12-02T10:29:17.141Z,19.3
2018-12-02T10:30:18.743Z,19.3
2018-12-02T10:31:20.068Z,19.3
2018-12-02T10:32:21.735Z,19.3
2018-12-02T10:33:23.636Z,19.4
2018-12-02T10:34:25.257Z,19.3
2018-12-02T10:35:27.185Z,19.3
2018-12-02T10:36:28.509Z,19.3
2018-12-02T10:37:30.112Z,19.3
2018-12-02T10:38:31.739Z,19.3
2018-12-02T10:39:33.361Z,19.4
2018-12-02T10:40:35.261Z,19.4
2018-12-02T10:41:37.161Z,19.4
2018-12-02T10:42:39.061Z,19.3
2018-12-02T10:43:40.385Z,19.3
2018-12-02T10:44:41.987Z,19.4
2018-12-02T10:45:43.888Z,19.4
2018-12-02T10:46:45.510Z,19.4
2018-12-02T10:47:47.134Z,19.4
2018-12-02T10:48:48.491Z,19.4
2018-12-02T10:49:50.116Z,19.4
2018-12-02T10:50:51.171Z,19.4
2018-12-02T10:51:52.791Z,19.4
2018-12-02T10:52:54.172Z,19.4
2018-12-02T10:53:55.796Z,19.4
2018-12-02T10:54:57.421Z,19.5
2018-12-02T10:55:58.774Z,19.4
2018-12-02T10:57:00.394Z,19.4
2018-12-02T10:58:02.297Z,19.4
2018-12-02T10:59:04.194Z,19.4
2018-12-02T11:00:05.551Z,19.5
2018-12-02T11:01:06.625Z,19.5
2018-12-02T11:02:08.222Z,19.5
2018-12-02T11:03:09.876Z,19.5
2018-12-02T11:04:10.933Z,19.5
2018-12-02T11:05:12.267Z,19.5
2018-12-02T11:06:13.621Z,19.5
2018-12-02T11:07:15.242Z,19.5
2018-12-02T11:08:16.368Z,19.5
2018-12-02T11:09:17.703Z,19.6
2018-12-02T11:10:19.332Z,19.6
2018-12-02T11:11:20.681Z,19.6
2018-12-02T11:12:22.583Z,19.6
2018-12-02T11:13:24.486Z,19.6
2018-12-02T11:14:25.831Z,19.6
2018-12-02T11:15:26.885Z,19.6
2018-12-02T11:16:28.513Z,19.6
2018-12-02T11:17:30.116Z,19.7
2018-12-02T11:18:31.726Z,19.6
2018-12-02T11:19:33.619Z,19.6
2018-12-02T11:20:35.521Z,19.7
2018-12-02T11:21:36.871Z,19.7
2018-12-02T11:22:38.496Z,19.7
2018-12-02T11:23:39.827Z,19.7
2018-12-02T11:24:41.724Z,19.7
2018-12-02T11:25:43.352Z,19.7
2018-12-02T11:26:44.682Z,19.7
2018-12-02T11:27:46.310Z,19.7
2018-12-02T11:28:48.262Z,19.8
2018-12-02T11:29:49.885Z,19.7
2018-12-02T11:30:51.508Z,19.7
2018-12-02T11:31:53.409Z,19.8
2018-12-02T11:32:55.310Z,19.8
2018-12-02T11:33:56.419Z,19.8
2018-12-02T11:34:58.319Z,19.8
2018-12-02T11:35:59.927Z,19.8
2018-12-02T11:37:01.555Z,19.8
2018-12-02T11:38:03.180Z,19.7
2018-12-02T11:39:04.512Z,19.8
2018-12-02T11:40:06.115Z,19.8
2018-12-02T11:41:07.735Z,19.8
2018-12-02T11:42:09.636Z,19.8
2018-12-02T11:43:11.544Z,19.8
2018-12-02T11:44:13.165Z,19.8
2018-12-02T11:45:15.065Z,19.8
2018-12-02T11:46:16.962Z,19.9
2018-12-02T11:47:18.876Z,19.9
2018-12-02T11:48:20.468Z,19.8
2018-12-02T11:49:22.371Z,19.9
2018-12-02T11:50:24.269Z,19.9
2018-12-02T11:51:26.168Z,19.9
2018-12-02T11:52:27.795Z,19.9
2018-12-02T11:53:29.421Z,19.9
2018-12-02T11:54:31.318Z,19.9
2018-12-02T11:55:32.941Z,19.8
2018-12-02T11:56:34.595Z,19.9
2018-12-02T11:57:36.222Z,19.8
2018-12-02T11:58:38.127Z,19.9
2018-12-02T11:59:40.176Z,19.9
2018-12-02T12:00:41.522Z,19.9
2018-12-02T12:01:43.424Z,19.9
2018-12-02T12:02:45.323Z,19.9
2018-12-02T12:03:47.225Z,19.9
2018-12-02T12:04:49.122Z,19.9
2018-12-02T12:05:51.052Z,19.9
2018-12-02T12:06:52.126Z,19.9
2018-12-02T12:07:53.730Z,20
2018-12-02T12:08:55.354Z,20
2018-12-02T12:09:56.965Z,19.9
2018-12-02T12:10:58.010Z,20
2018-12-02T12:11:59.357Z,20
2018-12-02T12:13:01.258Z,19.9
2018-12-02T12:14:02.886Z,20
2018-12-02T12:15:04.783Z,19.9
2018-12-02T12:16:06.681Z,20
2018-12-02T12:17:08.005Z,20
2018-12-02T12:18:09.645Z,20
2018-12-02T12:19:11.542Z,20
2018-12-02T12:20:13.442Z,20
2018-12-02T12:21:15.069Z,20
2018-12-02T12:22:16.696Z,20
2018-12-02T12:23:17.769Z,19.9
2018-12-02T12:24:19.375Z,20
2018-12-02T12:25:20.723Z,20
2018-12-02T12:26:22.074Z,19.9
2018-12-02T12:27:23.399Z,20
2018-12-02T12:28:24.750Z,20
2018-12-02T12:29:26.376Z,20
2018-12-02T12:30:28.279Z,19.9
2018-12-02T12:31:29.898Z,20
2018-12-02T12:32:31.249Z,20
2018-12-02T12:33:32.574Z,20
2018-12-02T12:34:34.196Z,20
2018-12-02T12:35:35.523Z,20
2018-12-02T12:36:37.420Z,19.9
2018-12-02T12:37:39.321Z,19.9
2018-12-02T12:38:40.650Z,19.9
2018-12-02T12:39:41.978Z,19.9
2018-12-02T12:40:43.032Z,19.9
2018-12-02T12:41:44.655Z,20
2018-12-02T12:42:46.285Z,19.9
2018-12-02T12:43:47.906Z,20
2018-12-02T12:44:49.803Z,19.9
2018-12-02T12:45:51.425Z,20
2018-12-02T12:46:52.756Z,20
2018-12-02T12:47:54.661Z,20
2018-12-02T12:48:55.724Z,20
2018-12-02T12:49:57.347Z,19.9
2018-12-02T12:50:58.420Z,19.9
2018-12-02T12:51:59.794Z,19.9
2018-12-02T12:53:01.400Z,20
2018-12-02T12:54:02.452Z,19.9
2018-12-02T12:55:04.108Z,20
2018-12-02T12:56:05.447Z,20
2018-12-02T12:57:06.798Z,19.9
2018-12-02T12:58:08.731Z,20
2018-12-02T12:59:10.355Z,20
2018-12-02T13:00:12.254Z,20
2018-12-02T13:01:13.603Z,20
2018-12-02T13:02:15.227Z,20
2018-12-02T13:03:17.124Z,20
2018-12-02T13:04:18.477Z,20
2018-12-02T13:05:20.376Z,20
2018-12-02T13:06:22.001Z,20
2018-12-02T13:07:23.902Z,20
2018-12-02T13:08:25.247Z,20
2018-12-02T13:09:27.143Z,20
2018-12-02T13:10:28.773Z,20
2018-12-02T13:11:30.376Z,20
2018-12-02T13:12:32.003Z,20
2018-12-02T13:13:33.336Z,20
2018-12-02T13:14:34.955Z,20
2018-12-02T13:15:36.311Z,20
2018-12-02T13:16:38.213Z,20
2018-12-02T13:17:39.537Z,20.1
2018-12-02T13:18:41.162Z,20
2018-12-02T13:19:42.791Z,20
2018-12-02T13:20:44.415Z,20
2018-12-02T13:21:45.746Z,20
2018-12-02T13:22:47.367Z,20
2018-12-02T13:23:48.721Z,20
2018-12-02T13:24:50.355Z,20
2018-12-02T13:25:52.255Z,20.1
2018-12-02T13:26:53.875Z,20.1
2018-12-02T13:27:55.208Z,20
2018-12-02T13:28:56.830Z,20.1
2018-12-02T13:29:58.186Z,20
2018-12-02T13:30:59.909Z,20.1
2018-12-02T13:32:01.257Z,20.2
2018-12-02T13:33:02.860Z,20.1
2018-12-02T13:34:04.756Z,20.1
2018-12-02T13:35:06.378Z,20
2018-12-02T13:36:07.977Z,20.1
2018-12-02T13:37:09.601Z,20.1
2018-12-02T13:38:11.233Z,20.1
2018-12-02T13:39:12.847Z,20.1
2018-12-02T13:40:14.452Z,20.1
2018-12-02T13:41:16.075Z,20
2018-12-02T13:42:17.978Z,20
2018-12-02T13:43:19.311Z,20.1
2018-12-02T13:44:21.210Z,20.1
2018-12-02T13:45:22.833Z,20.2
2018-12-02T13:46:24.435Z,20.1
2018-12-02T13:47:26.055Z,20.1
2018-12-02T13:48:27.106Z,20.1
2018-12-02T13:49:28.705Z,20.1